Ribeirao Pires, Brazil
Current Conditions -  °F | °C
As of 4:00 AM on Monday 26 Jan 2015 (Local Time) from SBSP Reporting Station
Light Rain Light Rain  
Wind Chill: 66°   Ceiling: 1500
Heat Index: 66°   Visibility: 5mi
Dew Point: 64°   Wind: 5mph
Humidity: 94%   Direction: 330°NNW
Pressure: 30.06"   Gusts: NA
Location:  23.72°S, 46.41°W
Report Text: SBSP 260600Z 33004KT 8000 -RA SCT009 BKN015 19/18 Q1018 RETS
Loading
Personal Weather Stations






























Interactive Weather Map New forecast layout! Learn more

10-Day Weather Forecast

Advertisements
Track Severe Weather on mobile